Time;durP1;ratioP1;P1;durP2;ratioP2;P2;SDS_P1;SDS_P2;PMS_P1;PMS_P2;Temp;Humidity;BMP_temperature;BMP_pressure;BME280_temperature;BME280_humidity;BME280_pressure;Samples;Min_cycle;Max_cycle;Signal;HPM_P1;HPM_P2
2023/05/24 00:01:24;;;;;;;12.05;4.53;;;13.20;99.90;;;;;;5050883;28;20109;-72
2023/05/24 00:03:57;;;;;;;10.57;4.43;;;13.20;99.90;;;;;;5050119;28;20036;-72
2023/05/24 00:06:27;;;;;;;9.30;3.50;;;13.20;99.90;;;;;;5051111;28;20040;-72
2023/05/24 00:08:53;;;;;;;13.80;4.25;;;13.20;99.90;;;;;;5050029;28;20028;-72
2023/05/24 00:11:21;;;;;;;6.50;3.33;;;13.20;99.90;;;;;;5050386;28;20055;-72
2023/05/24 00:13:47;;;;;;;8.48;3.95;;;13.20;99.90;;;;;;5049959;28;20037;-72
2023/05/24 00:16:13;;;;;;;10.70;4.32;;;13.20;99.90;;;;;;5050662;28;20017;-72
2023/05/24 00:18:39;;;;;;;9.05;4.22;;;13.20;99.90;;;;;;5049828;28;20055;-72
2023/05/24 00:21:08;;;;;;;10.48;3.80;;;13.20;99.90;;;;;;5050502;28;20037;-72
2023/05/24 00:23:35;;;;;;;8.25;4.13;;;13.20;99.90;;;;;;5050038;28;20025;-72
2023/05/24 00:26:02;;;;;;;9.57;4.28;;;13.20;99.90;;;;;;5049973;28;20045;-72
2023/05/24 00:28:28;;;;;;;12.52;4.50;;;13.10;99.90;;;;;;5050018;28;20108;-74
2023/05/24 00:30:54;;;;;;;12.18;4.53;;;13.10;99.90;;;;;;5049625;28;20116;-72
2023/05/24 00:33:22;;;;;;;10.45;4.07;;;13.10;99.90;;;;;;5050481;28;20033;-72
2023/05/24 00:35:48;;;;;;;8.13;4.10;;;13.00;99.90;;;;;;5049765;28;20033;-72
2023/05/24 00:38:14;;;;;;;10.05;4.10;;;12.90;99.90;;;;;;5050598;28;20453;-72
2023/05/24 00:40:40;;;;;;;11.85;3.97;;;12.80;99.90;;;;;;5049673;28;20131;-72
2023/05/24 00:43:06;;;;;;;10.18;4.00;;;12.80;99.90;;;;;;5050511;28;20426;-72
2023/05/24 00:45:31;;;;;;;10.15;4.13;;;12.80;99.90;;;;;;5049467;28;20033;-72
2023/05/24 00:47:58;;;;;;;11.88;3.92;;;12.70;99.90;;;;;;5049912;28;20025;-72
2023/05/24 00:50:24;;;;;;;7.63;4.88;;;12.70;99.90;;;;;;5049905;28;20039;-70
2023/05/24 00:52:50;;;;;;;10.35;4.30;;;12.70;99.90;;;;;;5049499;28;20099;-73
2023/05/24 00:55:17;;;;;;;7.15;4.00;;;12.70;99.90;;;;;;5050283;28;20025;-73
2023/05/24 00:57:43;;;;;;;10.05;4.18;;;12.60;99.90;;;;;;5049499;28;20025;-74
2023/05/24 01:00:10;;;;;;;8.13;4.47;;;12.60;99.90;;;;;;5049919;28;20053;-72
2023/05/24 01:02:36;;;;;;;10.23;4.78;;;12.60;99.90;;;;;;5049790;28;20087;-73
2023/05/24 01:05:03;;;;;;;8.85;4.70;;;12.60;99.90;;;;;;5053622;28;20132;-73
2023/05/24 01:07:52;;;;;;;10.13;4.40;;;12.60;99.90;;;;;;5053686;28;20465;-71
2023/05/24 01:10:37;;;;;;;11.35;4.68;;;12.50;99.90;;;;;;5053211;28;20040;-74
2023/05/24 01:13:28;;;;;;;10.02;4.38;;;12.50;99.90;;;;;;5053846;28;20040;-72
2023/05/24 01:16:04;;;;;;;10.15;4.70;;;12.50;99.90;;;;;;5052912;28;20029;-73
2023/05/24 01:18:39;;;;;;;10.35;4.47;;;12.40;99.90;;;;;;5053565;28;20115;-73
2023/05/24 01:21:10;;;;;;;12.93;4.72;;;12.40;99.90;;;;;;5055991;28;20451;-73
2023/05/24 01:24:13;;;;;;;7.90;4.68;;;12.30;99.90;;;;;;5053491;28;20056;-71
2023/05/24 01:27:02;;;;;;;8.70;4.45;;;12.30;99.90;;;;;;5052536;28;20045;-71
2023/05/24 01:29:30;;;;;;;9.18;4.97;;;12.20;99.90;;;;;;5053412;28;20028;-73
2023/05/24 01:31:56;;;;;;;8.93;4.60;;;12.10;99.90;;;;;;5051331;28;20037;-72
2023/05/24 01:34:23;;;;;;;9.00;4.70;;;12.10;99.90;;;;;;5053345;28;20033;-73
2023/05/24 01:36:49;;;;;;;10.48;4.35;;;12.00;99.90;;;;;;5052578;28;20466;-72
2023/05/24 01:39:15;;;;;;;11.35;5.10;;;11.90;99.90;;;;;;5053469;28;20074;-73
2023/05/24 01:42:08;;;;;;;12.02;5.50;;;11.80;99.90;;;;;;5052492;28;20032;-73
2023/05/24 01:44:42;;;;;;;11.18;4.78;;;11.80;99.90;;;;;;5052821;28;20044;-75
2023/05/24 01:47:16;;;;;;;8.50;4.82;;;11.70;99.90;;;;;;5051735;28;20035;-70
2023/05/24 01:49:49;;;;;;;10.18;4.60;;;11.50;99.90;;;;;;5052686;28;20465;-73
2023/05/24 01:52:15;;;;;;;;;;;11.50;99.90;;;;;;5053231;28;20445;-72
2023/05/24 01:54:46;;;;;;;12.13;4.70;;;11.40;99.90;;;;;;5052287;28;19927;-73
2023/05/24 01:57:13;;;;;;;7.13;4.50;;;11.30;99.90;;;;;;5052729;28;20021;-72
2023/05/24 01:59:43;;;;;;;8.75;4.50;;;11.30;99.90;;;;;;5052304;28;20024;-73
2023/05/24 02:02:12;;;;;;;11.05;5.38;;;11.20;99.90;;;;;;5052662;28;20029;-73
2023/05/24 02:04:37;;;;;;;12.05;5.28;;;11.20;99.90;;;;;;5050701;28;20052;-74
2023/05/24 02:07:03;;;;;;;9.32;5.43;;;11.30;99.90;;;;;;5052437;28;20106;-73
2023/05/24 02:09:29;;;;;;;11.90;5.38;;;11.20;99.90;;;;;;5052406;28;20036;-70
2023/05/24 02:11:55;;;;;;;10.75;5.05;;;11.20;99.90;;;;;;5050280;28;20029;-71
2023/05/24 02:14:20;;;;;;;8.13;4.78;;;11.20;99.90;;;;;;5052575;28;20025;-72
2023/05/24 02:16:46;;;;;;;7.70;5.22;;;11.30;99.90;;;;;;5052379;28;20485;-73
2023/05/24 02:19:13;;;;;;;13.45;5.40;;;11.30;99.90;;;;;;5052571;28;20478;-70
2023/05/24 02:21:40;;;;;;;11.23;5.15;;;11.30;99.90;;;;;;5051735;28;20095;-71
2023/05/24 02:24:06;;;;;;;10.63;5.38;;;11.40;99.90;;;;;;5052659;28;20040;-73
2023/05/24 02:26:32;;;;;;;9.43;5.03;;;11.50;99.90;;;;;;5052276;28;20040;-70
2023/05/24 02:28:58;;;;;;;12.20;5.65;;;11.50;99.90;;;;;;5051765;28;20049;-70
2023/05/24 02:31:27;;;;;;;10.40;5.38;;;11.40;99.90;;;;;;5052149;28;20419;-70
2023/05/24 02:33:54;;;;;;;12.60;5.47;;;11.40;99.90;;;;;;5051345;28;20060;-70
2023/05/24 02:36:22;;;;;;;12.20;6.00;;;11.30;99.90;;;;;;5051867;28;20104;-73
2023/05/24 02:38:51;;;;;;;11.73;5.68;;;11.20;99.90;;;;;;5051162;28;20359;-71
2023/05/24 02:41:17;;;;;;;12.88;5.32;;;11.20;99.90;;;;;;5051627;28;20111;-71
2023/05/24 02:43:46;;;;;;;10.52;6.00;;;11.10;99.90;;;;;;5051301;28;20025;-72
2023/05/24 02:46:13;;;;;;;10.38;5.18;;;11.00;99.90;;;;;;5051887;28;20048;-71
2023/05/24 02:48:39;;;;;;;9.57;5.38;;;11.00;99.90;;;;;;5049965;28;20476;-74
2023/05/24 02:51:05;;;;;;;14.95;5.93;;;11.00;99.90;;;;;;5051723;28;20084;-71
2023/05/24 02:53:31;;;;;;;10.48;5.15;;;11.00;99.90;;;;;;5051702;28;20033;-71
2023/05/24 02:55:58;;;;;;;10.38;6.05;;;11.00;99.90;;;;;;5050927;28;20128;-72
2023/05/24 02:58:23;;;;;;;12.60;5.90;;;10.90;99.90;;;;;;5051653;28;20021;-72
2023/05/24 03:00:49;;;;;;;12.73;5.55;;;10.90;99.90;;;;;;5050977;28;20473;-72
2023/05/24 03:03:15;;;;;;;14.20;5.80;;;10.80;99.90;;;;;;5051517;28;20040;-71
2023/05/24 03:05:41;;;;;;;13.60;5.63;;;10.80;99.90;;;;;;5051196;28;20032;-72
2023/05/24 03:08:07;;;;;;;13.05;5.63;;;10.70;99.90;;;;;;5051527;28;20131;-71
2023/05/24 03:10:33;;;;;;;11.95;6.03;;;10.70;99.90;;;;;;5051187;28;20111;-72
2023/05/24 03:12:59;;;;;;;11.82;6.07;;;10.70;99.90;;;;;;5049119;28;20036;-71
2023/05/24 03:15:24;;;;;;;13.02;6.20;;;10.70;99.90;;;;;;5051015;28;20068;-71
2023/05/24 03:17:50;;;;;;;10.60;6.15;;;10.60;99.90;;;;;;5050592;28;20094;-72
2023/05/24 03:20:16;;;;;;;10.80;5.70;;;10.60;99.90;;;;;;5050934;28;20083;-71
2023/05/24 03:22:42;;;;;;;12.88;6.05;;;10.60;99.90;;;;;;5050505;28;20348;-72
2023/05/24 03:25:08;;;;;;;15.80;6.80;;;10.60;99.90;;;;;;5050517;28;20044;-71
2023/05/24 03:27:35;;;;;;;16.83;6.70;;;10.60;99.90;;;;;;5050851;28;20059;-71
2023/05/24 03:30:01;;;;;;;9.65;6.40;;;10.50;99.90;;;;;;5050416;28;20206;-71
2023/05/24 03:32:26;;;;;;;7.63;5.63;;;10.50;99.90;;;;;;5050691;28;20029;-71
2023/05/24 03:34:52;;;;;;;9.35;6.15;;;10.40;99.90;;;;;;5049988;28;20061;-72
2023/05/24 03:37:18;;;;;;;12.82;5.88;;;10.50;99.90;;;;;;5050923;28;20121;-71
2023/05/24 03:39:44;;;;;;;15.05;5.88;;;10.40;99.90;;;;;;5050173;28;20100;-72
2023/05/24 03:42:10;;;;;;;10.35;5.95;;;10.50;99.90;;;;;;5050703;28;20068;-71
2023/05/24 03:44:36;;;;;;;12.10;6.15;;;10.40;99.90;;;;;;5050494;28;20435;-71
2023/05/24 03:47:02;;;;;;;11.68;6.20;;;10.50;99.90;;;;;;5050111;28;20158;-71
2023/05/24 03:49:28;;;;;;;11.73;6.40;;;10.50;99.90;;;;;;5050481;28;20100;-72
2023/05/24 03:51:54;;;;;;;14.68;6.28;;;10.50;99.90;;;;;;5049776;28;20425;-72
2023/05/24 03:54:19;;;;;;;12.93;6.00;;;10.60;99.90;;;;;;5050669;28;20033;-72
2023/05/24 03:56:45;;;;;;;12.15;5.50;;;10.70;99.90;;;;;;5049928;28;20044;-72
2023/05/24 03:59:11;;;;;;;9.82;5.63;;;10.70;99.90;;;;;;5050636;28;20025;-71
2023/05/24 04:01:36;;;;;;;8.32;5.60;;;10.70;99.90;;;;;;5050361;28;20041;-72
2023/05/24 04:04:03;;;;;;;16.20;6.82;;;10.80;99.90;;;;;;5031797;28;20025;-71
2023/05/24 04:06:29;;;;;;;14.13;5.85;;;10.80;99.90;;;;;;5049950;28;20493;-72
2023/05/24 04:08:55;;;;;;;13.15;5.97;;;10.80;99.90;;;;;;5049575;28;20041;-72
2023/05/24 04:11:22;;;;;;;20.52;6.65;;;10.80;99.90;;;;;;5048786;28;20039;-73
2023/05/24 04:13:51;;;;;;;14.38;5.93;;;10.80;99.90;;;;;;5049983;28;20086;-72
2023/05/24 04:16:17;;;;;;;13.38;5.97;;;10.80;99.90;;;;;;5050075;28;20017;-72
2023/05/24 04:18:44;;;;;;;11.52;5.88;;;10.80;99.90;;;;;;5049782;28;20414;-74
2023/05/24 04:21:10;;;;;;;11.77;6.00;;;10.80;99.90;;;;;;5050070;28;20036;-72
2023/05/24 04:23:36;;;;;;;13.15;6.13;;;10.90;99.90;;;;;;5051044;28;20051;-72
2023/05/24 04:26:01;;;;;;;19.95;6.28;;;11.00;99.90;;;;;;5049448;28;20041;-72
2023/05/24 04:28:27;;;;;;;17.13;6.07;;;10.90;99.90;;;;;;5050303;28;20166;-72
2023/05/24 04:30:54;;;;;;;16.52;6.72;;;10.90;99.90;;;;;;5049313;28;20056;-72
2023/05/24 04:33:21;;;;;;;10.32;5.55;;;10.90;99.90;;;;;;5050298;28;20055;-72
2023/05/24 04:35:47;;;;;;;14.70;5.82;;;10.90;99.90;;;;;;5050065;28;20021;-72
2023/05/24 04:38:13;;;;;;;16.20;6.38;;;10.90;99.90;;;;;;5051785;28;20021;-72
2023/05/24 04:40:38;;;;;;;14.90;6.32;;;10.90;99.90;;;;;;5052955;28;20123;-71
2023/05/24 04:43:06;;;;;;;20.30;6.13;;;10.80;99.90;;;;;;5053621;28;20640;-71
2023/05/24 04:45:32;;;;;;;14.18;6.25;;;10.90;99.90;;;;;;5054197;28;20021;-71
2023/05/24 04:47:58;;;;;;;12.55;6.65;;;10.80;99.90;;;;;;5053466;28;20105;-71
2023/05/24 04:50:24;;;;;;;12.57;5.75;;;10.80;99.90;;;;;;5054090;28;20506;-72
2023/05/24 04:52:50;;;;;;;14.77;5.97;;;10.90;99.90;;;;;;5053373;28;20033;-72
2023/05/24 04:55:16;;;;;;;11.32;5.72;;;11.00;99.90;;;;;;5054043;28;20035;-71
2023/05/24 04:57:41;;;;;;;14.05;5.97;;;11.10;99.90;;;;;;5053867;28;20476;-71
2023/05/24 05:00:09;;;;;;;11.90;6.65;;;11.10;99.90;;;;;;5053546;28;20106;-71
2023/05/24 05:02:34;;;;;;;12.68;6.43;;;11.10;99.90;;;;;;5053709;28;20029;-71
2023/05/24 05:05:00;;;;;;;15.75;5.90;;;11.20;99.90;;;;;;5053176;28;20079;-71
2023/05/24 05:07:26;;;;;;;13.57;6.07;;;11.20;99.90;;;;;;5053789;28;20098;-71
2023/05/24 05:09:52;;;;;;;15.48;6.63;;;11.30;99.90;;;;;;5052972;28;20100;-70
2023/05/24 05:12:17;;;;;;;12.60;7.10;;;11.40;99.90;;;;;;5053726;28;20044;-71
2023/05/24 05:14:43;;;;;;;12.15;6.90;;;11.50;99.90;;;;;;5053616;28;20025;-71
2023/05/24 05:17:09;;;;;;;16.95;5.90;;;11.60;99.90;;;;;;5052667;28;20028;-71
2023/05/24 05:19:34;;;;;;;14.50;6.50;;;11.70;99.90;;;;;;5053426;28;20048;-71
2023/05/24 05:22:00;;;;;;;10.70;6.55;;;11.70;99.90;;;;;;5052894;28;20387;-71
2023/05/24 05:24:26;;;;;;;14.32;6.35;;;11.80;99.90;;;;;;5053266;28;20120;-72
2023/05/24 05:26:52;;;;;;;13.80;5.72;;;11.80;99.90;;;;;;5052489;28;20084;-72
2023/05/24 05:29:17;;;;;;;25.00;11.43;;;11.90;99.90;;;;;;5053465;28;20032;-72
2023/05/24 05:31:43;;;;;;;17.52;7.95;;;12.00;99.90;;;;;;5053210;28;20474;-72
2023/05/24 05:34:09;;;;;;;11.70;5.85;;;12.10;99.90;;;;;;5052555;28;20524;-71
2023/05/24 05:36:39;;;;;;;11.80;5.72;;;12.20;99.90;;;;;;5051133;28;20029;-71
2023/05/24 05:39:08;;;;;;;10.23;5.45;;;12.20;99.90;;;;;;5051045;28;20032;-72
2023/05/24 05:41:44;;;;;;;10.15;5.30;;;12.40;99.90;;;;;;5052969;28;20040;-71
2023/05/24 05:44:11;;;;;;;11.65;5.40;;;12.50;99.90;;;;;;5052153;28;20874;-72
2023/05/24 05:46:37;;;;;;;11.70;5.05;;;12.50;99.90;;;;;;5052789;28;20036;-72
2023/05/24 05:49:03;;;;;;;12.02;5.22;;;12.60;99.90;;;;;;5051330;28;20099;-72
2023/05/24 05:51:30;;;;;;;26.98;6.78;;;12.70;99.90;;;;;;5052140;28;20109;-71
2023/05/24 05:53:56;;;;;;;10.90;6.00;;;12.80;99.90;;;;;;5051986;28;20576;-71
2023/05/24 05:56:21;;;;;;;12.55;5.25;;;12.90;99.90;;;;;;5053034;28;20100;-71
2023/05/24 05:58:47;;;;;;;9.70;5.22;;;13.00;99.90;;;;;;5052351;28;20082;-71
2023/05/24 06:01:14;;;;;;;13.00;5.43;;;13.00;99.90;;;;;;5051787;28;20071;-71
2023/05/24 06:03:40;;;;;;;12.18;5.90;;;13.00;99.90;;;;;;5052065;28;20140;-72
2023/05/24 06:06:06;;;;;;;15.25;6.10;;;13.00;99.90;;;;;;5051475;28;20099;-72
2023/05/24 06:08:33;;;;;;;12.68;5.50;;;13.20;99.90;;;;;;5050562;28;20040;-72
2023/05/24 06:11:00;;;;;;;9.30;4.97;;;13.30;99.90;;;;;;5051404;28;20116;-72
2023/05/24 06:13:27;;;;;;;13.05;5.20;;;13.20;99.90;;;;;;5051987;28;20028;-71
2023/05/24 06:15:53;;;;;;;12.18;4.97;;;13.30;99.90;;;;;;5051321;28;20430;-72
2023/05/24 06:18:19;;;;;;;10.52;4.57;;;13.40;99.90;;;;;;5051909;28;20051;-71
2023/05/24 06:20:46;;;;;;;11.07;4.60;;;13.60;99.90;;;;;;5051822;28;20075;-72
2023/05/24 06:23:12;;;;;;;12.25;4.90;;;13.70;99.90;;;;;;5051500;28;20017;-72
2023/05/24 06:25:39;;;;;;;11.52;4.32;;;13.70;99.90;;;;;;5051935;28;20336;-71
2023/05/24 06:28:05;;;;;;;8.40;3.95;;;13.80;99.90;;;;;;5051584;28;20037;-73
2023/05/24 06:30:32;;;;;;;9.27;4.63;;;13.80;99.90;;;;;;5051845;28;20063;-73
2023/05/24 06:32:58;;;;;;;11.40;4.53;;;13.70;99.90;;;;;;5051727;28;20123;-73
2023/05/24 06:35:23;;;;;;;12.13;4.60;;;13.90;99.90;;;;;;5051702;28;20453;-73
2023/05/24 06:37:49;;;;;;;10.73;4.63;;;14.00;99.90;;;;;;5051451;28;20025;-73
2023/05/24 06:40:15;;;;;;;10.48;4.57;;;14.10;99.90;;;;;;5051379;28;20048;-73
2023/05/24 06:42:41;;;;;;;8.50;4.25;;;14.20;99.90;;;;;;5051640;28;20358;-71
2023/05/24 06:45:08;;;;;;;10.82;4.22;;;14.20;99.90;;;;;;5050925;28;20032;-72
2023/05/24 06:47:33;;;;;;;10.60;4.47;;;14.20;99.90;;;;;;5051598;28;20443;-72
2023/05/24 06:49:59;;;;;;;8.57;4.40;;;14.20;99.90;;;;;;5050726;28;20090;-72
2023/05/24 06:52:25;;;;;;;15.73;5.30;;;14.20;99.90;;;;;;5051301;28;20051;-71
2023/05/24 06:54:51;;;;;;;12.48;4.53;;;14.30;99.90;;;;;;5051268;28;20027;-71
2023/05/24 06:57:17;;;;;;;10.77;4.30;;;14.30;99.90;;;;;;5049357;28;20045;-72
2023/05/24 06:59:43;;;;;;;12.75;4.53;;;14.40;99.90;;;;;;5051043;28;20064;-72
2023/05/24 07:02:08;;;;;;;11.05;4.07;;;14.40;99.90;;;;;;5049671;28;20362;-72
2023/05/24 07:04:35;;;;;;;10.13;4.40;;;14.50;99.90;;;;;;5051172;28;20036;-73
2023/05/24 07:07:01;;;;;;;12.13;4.05;;;14.60;99.90;;;;;;5049314;28;20033;-72
2023/05/24 07:09:27;;;;;;;8.20;4.10;;;14.70;99.90;;;;;;5050642;28;20532;-72
2023/05/24 07:11:53;;;;;;;9.00;3.97;;;14.70;99.90;;;;;;5050906;28;20037;-72
2023/05/24 07:14:19;;;;;;;12.02;4.20;;;14.80;99.90;;;;;;5050244;28;20029;-72
2023/05/24 07:16:45;;;;;;;11.63;4.20;;;14.80;99.90;;;;;;5030444;28;20344;-72
2023/05/24 07:19:12;;;;;;;10.85;4.00;;;14.80;99.90;;;;;;5030539;28;20037;-73
2023/05/24 07:21:38;;;;;;;10.80;3.85;;;14.80;99.90;;;;;;5062761;28;20032;-72
2023/05/24 07:24:03;;;;;;;10.77;3.95;;;14.90;99.90;;;;;;5030050;28;20328;-73
2023/05/24 07:26:29;;;;;;;10.40;4.00;;;14.90;99.90;;;;;;5030861;28;20052;-73
2023/05/24 07:28:55;;;;;;;14.85;4.70;;;14.90;99.90;;;;;;5030572;28;20026;-75
2023/05/24 07:31:21;;;;;;;9.98;4.45;;;14.90;99.90;;;;;;5030638;28;20119;-72
2023/05/24 07:33:47;;;;;;;13.30;4.75;;;14.80;99.90;;;;;;5030624;28;20021;-73
2023/05/24 07:36:13;;;;;;;13.10;4.45;;;14.70;99.90;;;;;;5029854;28;20112;-72
2023/05/24 07:38:39;;;;;;;7.88;4.07;;;14.80;99.90;;;;;;5030601;28;20051;-72
2023/05/24 07:41:06;;;;;;;12.10;4.63;;;14.70;99.90;;;;;;5029907;28;20037;-73
2023/05/24 07:43:32;;;;;;;9.13;3.88;;;14.60;99.90;;;;;;5030469;28;20036;-72
2023/05/24 07:45:57;;;;;;;14.63;4.43;;;14.60;99.90;;;;;;5029842;28;20025;-76
2023/05/24 07:48:23;;;;;;;14.15;4.97;;;14.70;99.90;;;;;;5030132;28;20084;-72
2023/05/24 07:50:51;;;;;;;11.52;4.20;;;14.70;99.90;;;;;;5028782;28;20382;-73
2023/05/24 07:53:18;;;;;;;17.00;4.40;;;14.90;99.90;;;;;;5029850;28;20036;-73
2023/05/24 07:55:44;;;;;;;11.48;3.78;;;14.90;99.90;;;;;;5029812;28;20052;-74
2023/05/24 07:58:10;;;;;;;12.55;4.78;;;14.90;99.90;;;;;;5029562;28;20022;-71
2023/05/24 08:00:37;;;;;;;12.75;4.20;;;15.00;99.90;;;;;;5030087;28;20164;-71
2023/05/24 08:03:04;;;;;;;11.82;4.40;;;14.90;99.90;;;;;;5029056;28;20105;-74
2023/05/24 08:05:30;;;;;;;14.10;4.63;;;14.90;99.90;;;;;;5030300;28;20116;-72
2023/05/24 08:07:56;;;;;;;10.93;3.75;;;15.00;99.90;;;;;;5030026;28;20120;-72
2023/05/24 08:10:23;;;;;;;10.85;3.38;;;15.30;99.90;;;;;;5028972;28;20111;-72
2023/05/24 08:12:53;;;;;;;14.07;3.83;;;15.40;99.90;;;;;;5029680;28;20064;-72
2023/05/24 08:15:19;;;;;;;14.45;3.80;;;15.50;99.90;;;;;;5029152;28;20143;-73
2023/05/24 08:17:45;;;;;;;12.40;3.65;;;15.50;99.90;;;;;;5029332;28;20447;-72
2023/05/24 08:20:14;;;;;;;11.73;4.00;;;15.40;99.90;;;;;;5028832;28;20048;-72
2023/05/24 08:22:41;;;;;;;10.80;3.85;;;15.40;99.90;;;;;;5029192;28;20025;-73
2023/05/24 08:25:07;;;;;;;15.55;4.30;;;15.50;99.90;;;;;;5028842;28;20045;-72
2023/05/24 08:27:33;;;;;;;12.60;3.35;;;15.70;99.90;;;;;;5029193;28;20021;-72
2023/05/24 08:29:59;;;;;;;13.65;3.53;;;15.70;99.90;;;;;;5028943;28;20030;-76
2023/05/24 08:32:25;;;;;;;9.20;3.42;;;15.60;99.90;;;;;;5030043;28;20044;-73
2023/05/24 08:34:51;;;;;;;10.73;4.38;;;15.60;99.90;;;;;;5029240;28;20080;-73
2023/05/24 08:37:21;;;;;;;11.65;3.40;;;15.60;99.90;;;;;;5028601;28;20030;-73
2023/05/24 08:39:47;;;;;;;10.18;3.67;;;15.50;99.90;;;;;;5029606;28;20052;-73
2023/05/24 08:42:14;;;;;;;9.48;3.72;;;15.50;99.90;;;;;;5028938;28;20099;-73
2023/05/24 08:45:07;;;;;;;10.65;3.60;;;15.50;99.90;;;;;;5029542;28;20478;-74
2023/05/24 08:47:35;;;;;;;9.70;3.45;;;15.50;99.90;;;;;;5023838;28;20137;-73
2023/05/24 08:50:01;;;;;;;12.55;4.07;;;15.50;99.90;;;;;;5029092;28;20554;-76
2023/05/24 08:52:30;;;;;;;12.45;3.75;;;15.50;99.90;;;;;;5029507;28;20030;-74
2023/05/24 08:54:57;;;;;;;11.45;3.65;;;15.50;99.90;;;;;;5029780;28;20340;-73
2023/05/24 08:57:26;;;;;;;9.60;3.17;;;15.70;99.90;;;;;;5029388;28;20048;-73
2023/05/24 08:59:55;;;;;;;11.07;3.50;;;15.80;99.90;;;;;;5028586;28;20116;-73
2023/05/24 09:02:21;;;;;;;11.40;3.63;;;15.80;99.90;;;;;;5029537;28;20029;-74
2023/05/24 09:04:48;;;;;;;11.25;4.18;;;15.90;99.90;;;;;;5029787;28;20084;-74
2023/05/24 09:07:17;;;;;;;11.70;3.75;;;15.80;99.90;;;;;;5029855;28;20374;-74
2023/05/24 09:09:48;;;;;;;11.60;3.97;;;15.80;99.90;;;;;;5029871;28;20025;-75
2023/05/24 09:12:17;;;;;;;10.38;3.40;;;15.90;99.90;;;;;;5029302;28;20029;-74
2023/05/24 09:14:46;;;;;;;7.88;3.63;;;15.90;99.90;;;;;;5029968;28;20432;-74
2023/05/24 09:17:15;;;;;;;9.70;3.60;;;15.90;99.90;;;;;;5029221;28;20030;-74
2023/05/24 09:19:49;;;;;;;8.77;3.60;;;15.90;99.90;;;;;;5029866;28;20131;-75
2023/05/24 09:22:19;;;;;;;14.45;3.85;;;16.00;99.90;;;;;;5028774;28;20048;-74
2023/05/24 09:24:51;;;;;;;10.45;4.32;;;16.10;99.90;;;;;;5031670;28;20029;-75
2023/05/24 09:27:21;;;;;;;11.30;3.15;;;16.20;99.90;;;;;;5032985;28;20442;-75
2023/05/24 09:29:56;;;;;;;12.60;4.00;;;15.90;99.90;;;;;;5033496;28;20033;-74
2023/05/24 09:32:23;;;;;;;16.10;3.72;;;15.90;99.90;;;;;;5032909;28;20059;-74
2023/05/24 09:34:52;;;;;;;9.18;3.83;;;16.00;99.90;;;;;;5033545;28;20030;-75
2023/05/24 09:37:21;;;;;;;16.65;4.20;;;16.00;99.90;;;;;;5032642;28;20029;-73
2023/05/24 09:39:49;;;;;;;8.75;3.50;;;16.20;99.90;;;;;;5034119;28;20033;-74
2023/05/24 09:42:19;;;;;;;14.43;3.78;;;16.50;99.90;;;;;;5033730;28;20045;-73
2023/05/24 09:45:10;;;;;;;10.20;3.97;;;16.70;99.90;;;;;;5034368;28;20092;-72
2023/05/24 09:47:38;;;;;;;12.40;3.65;;;17.00;99.90;;;;;;5028297;28;20037;-72
2023/05/24 09:50:10;;;;;;;14.13;3.72;;;17.10;99.90;;;;;;5033324;28;20057;-76
2023/05/24 09:52:36;;;;;;;10.27;3.50;;;17.10;99.90;;;;;;5032648;28;20033;-73
2023/05/24 09:55:15;;;;;;;12.60;4.30;;;17.10;99.90;;;;;;5034293;28;20029;-76
2023/05/24 09:58:03;;;;;;;13.98;3.85;;;17.10;99.90;;;;;;5034197;28;20403;-74
2023/05/24 10:00:38;;;;;;;9.90;3.65;;;17.10;99.90;;;;;;5034400;28;20038;-73
2023/05/24 10:03:06;;;;;;;11.68;4.20;;;17.30;99.90;;;;;;5033996;28;20021;-76
2023/05/24 10:05:32;;;;;;;11.20;4.05;;;17.20;99.90;;;;;;5033295;28;20442;-73
2023/05/24 10:07:59;;;;;;;11.80;3.53;;;17.20;99.90;;;;;;5032831;28;20034;-73
2023/05/24 10:10:30;;;;;;;10.45;3.50;;;17.20;99.90;;;;;;5031987;28;20039;-73
2023/05/24 10:12:57;;;;;;;12.68;4.00;;;17.10;99.90;;;;;;5032455;28;20038;-72
2023/05/24 10:15:25;;;;;;;8.70;3.65;;;17.10;99.90;;;;;;5030607;28;20041;-73
2023/05/24 10:17:55;;;;;;;12.50;4.22;;;17.00;99.90;;;;;;5032373;28;20083;-73
2023/05/24 10:20:22;;;;;;;13.25;3.88;;;16.90;99.90;;;;;;5063789;28;20026;-73
2023/05/24 10:22:51;;;;;;;13.55;4.15;;;17.10;99.90;;;;;;5032249;28;20026;-73
2023/05/24 10:25:38;;;;;;;10.02;3.95;;;17.10;99.90;;;;;;5031442;28;20049;-73
2023/05/24 10:28:11;;;;;;;13.50;3.75;;;17.10;99.90;;;;;;5032033;28;20408;-75
2023/05/24 10:30:46;;;;;;;11.63;4.22;;;17.10;99.90;;;;;;5032066;28;20034;-73
2023/05/24 10:33:14;;;;;;;10.73;4.30;;;17.00;99.90;;;;;;5031333;28;20033;-73
2023/05/24 10:35:41;;;;;;;15.05;4.32;;;17.00;99.90;;;;;;5031567;28;20301;-74
2023/05/24 10:38:07;;;;;;;16.10;4.65;;;16.90;99.90;;;;;;5031470;28;20057;-75
2023/05/24 10:40:33;;;;;;;15.93;4.50;;;16.90;99.90;;;;;;5032054;28;20524;-72
2023/05/24 10:43:03;;;;;;;12.95;4.07;;;16.60;99.90;;;;;;5031835;28;20092;-72
2023/05/24 10:45:31;;;;;;;15.25;4.22;;;16.60;99.90;;;;;;5031206;28;20032;-73
2023/05/24 10:48:01;;;;;;;13.55;4.25;;;16.50;99.90;;;;;;5031775;28;20108;-73
2023/05/24 10:50:28;;;;;;;9.95;3.70;;;16.50;99.90;;;;;;5031163;28;20099;-73
2023/05/24 10:53:10;;;;;;;11.30;3.97;;;16.50;99.90;;;;;;5031389;28;20113;-73
2023/05/24 10:55:54;;;;;;;10.15;4.22;;;16.60;99.90;;;;;;5031514;28;20033;-72
2023/05/24 10:58:22;;;;;;;15.90;4.28;;;16.80;99.90;;;;;;5030545;28;20355;-73
2023/05/24 11:00:50;;;;;;;10.30;4.45;;;17.00;99.90;;;;;;5031887;28;20087;-72
2023/05/24 11:03:22;;;;;;;14.48;4.35;;;17.10;99.90;;;;;;5030708;28;20095;-71
2023/05/24 11:05:48;;;;;;;13.40;3.93;;;17.30;99.90;;;;;;5033325;28;20120;-73
2023/05/24 11:08:30;;;;;;;10.73;4.20;;;17.40;99.90;;;;;;5031246;28;20072;-73
2023/05/24 11:11:19;;;;;;;14.15;4.40;;;17.40;99.90;;;;;;5031540;28;20033;-73
2023/05/24 11:13:46;;;;;;;11.65;4.75;;;17.40;99.90;;;;;;5031352;28;20036;-73
2023/05/24 11:16:38;;;;;;;14.45;4.50;;;17.40;99.90;;;;;;5031023;28;20589;-73
2023/05/24 11:19:14;;;;;;;11.52;4.30;;;17.60;99.90;;;;;;5031220;28;20371;-73
2023/05/24 11:21:43;;;;;;;12.30;4.07;;;17.60;99.90;;;;;;5031654;28;20468;-73
2023/05/24 11:24:09;;;;;;;8.98;4.05;;;17.70;99.90;;;;;;5031633;28;20061;-76
2023/05/24 11:26:35;;;;;;;12.02;4.32;;;17.70;99.90;;;;;;5031429;28;20775;-73
2023/05/24 11:29:04;;;;;;;15.45;4.50;;;17.70;99.90;;;;;;5031251;28;20052;-73
2023/05/24 11:31:31;;;;;;;13.95;4.30;;;17.80;99.90;;;;;;5030953;28;20045;-73
2023/05/24 11:33:59;;;;;;;15.30;4.07;;;17.70;99.90;;;;;;5031230;28;20021;-73
2023/05/24 11:36:25;;;;;;;17.58;4.32;;;17.60;99.90;;;;;;5030538;28;20022;-73
2023/05/24 11:38:53;;;;;;;15.75;4.78;;;17.60;99.90;;;;;;5031189;28;20478;-73
2023/05/24 11:41:18;;;;;;;13.30;4.35;;;17.50;99.90;;;;;;5030624;28;20038;-73
2023/05/24 11:43:44;;;;;;;15.32;4.15;;;17.50;99.90;;;;;;5030850;28;20025;-73
2023/05/24 11:46:10;;;;;;;17.38;4.75;;;17.50;99.90;;;;;;5030821;28;20021;-76
2023/05/24 11:48:37;;;;;;;13.73;5.13;;;17.70;99.90;;;;;;5030741;28;20113;-73
2023/05/24 11:51:04;;;;;;;13.60;4.85;;;17.70;99.90;;;;;;5031098;28;20112;-73
2023/05/24 11:53:30;;;;;;;12.80;4.13;;;17.80;99.90;;;;;;5030451;28;20062;-73
2023/05/24 11:55:56;;;;;;;10.25;4.43;;;17.90;99.90;;;;;;5029443;28;20037;-73
2023/05/24 11:58:25;;;;;;;13.20;4.72;;;18.20;99.90;;;;;;5028320;28;20092;-73
2023/05/24 12:00:51;;;;;;;12.77;4.50;;;18.20;99.90;;;;;;5030686;28;20025;-74
2023/05/24 12:03:17;;;;;;;11.73;4.70;;;18.20;99.90;;;;;;5030122;28;20025;-74
2023/05/24 12:05:43;;;;;;;15.90;4.38;;;18.30;99.90;;;;;;5029492;28;20025;-74
2023/05/24 12:08:11;;;;;;;12.55;4.55;;;18.30;99.90;;;;;;5030622;28;20117;-73
2023/05/24 12:10:38;;;;;;;13.45;4.53;;;18.20;99.90;;;;;;5030220;28;20034;-73
2023/05/24 12:13:16;;;;;;;13.35;4.30;;;18.40;99.90;;;;;;5030271;28;20025;-73
2023/05/24 12:15:42;;;;;;;12.52;4.35;;;18.60;99.90;;;;;;5028909;28;20112;-73
2023/05/24 12:18:22;;;;;;;11.80;4.57;;;18.80;99.90;;;;;;5030136;28;20081;-73
2023/05/24 12:20:49;;;;;;;9.32;4.00;;;18.60;99.90;;;;;;5030242;28;20037;-72
2023/05/24 12:23:16;;;;;;;20.52;5.38;;;18.60;99.90;;;;;;5029512;28;20021;-73
2023/05/24 12:25:43;;;;;;;13.25;5.07;;;18.70;99.90;;;;;;5029834;28;20058;-72
2023/05/24 12:28:09;;;;;;;13.05;4.55;;;18.70;99.90;;;;;;5029860;28;20025;-73
2023/05/24 12:30:41;;;;;;;13.70;4.40;;;18.80;99.90;;;;;;5029597;28;20033;-72
2023/05/24 12:33:10;;;;;;;15.30;4.38;;;18.90;99.90;;;;;;5029756;28;20071;-72
2023/05/24 12:35:39;;;;;;;13.75;4.95;;;18.80;99.90;;;;;;5029157;28;20033;-73
2023/05/24 12:38:08;;;;;;;15.35;4.47;;;18.80;99.90;;;;;;5030275;28;20383;-73
2023/05/24 12:40:33;;;;;;;12.57;4.32;;;18.80;99.90;;;;;;5030728;28;20188;-74
2023/05/24 12:42:59;;;;;;;13.00;4.43;;;18.70;99.90;;;;;;5031300;28;20454;-73